createdAt,value
2019-05-16T00:00:08.406Z,56.33
2019-05-16T00:02:33.434Z,56.18
2019-05-16T00:04:59.468Z,56.30
2019-05-16T00:07:28.172Z,56.22
2019-05-16T00:09:51.495Z,56.29
2019-05-16T00:12:18.414Z,56.23
2019-05-16T00:14:43.528Z,56.20
2019-05-16T00:17:09.557Z,56.10
2019-05-16T00:19:35.567Z,56.24
2019-05-16T00:22:01.587Z,55.95
2019-05-16T00:24:29.133Z,56.20
2019-05-16T00:26:53.602Z,56.15
2019-05-16T00:29:19.622Z,56.16
2019-05-16T00:31:45.637Z,56.17
2019-05-16T00:34:11.750Z,56.12
2019-05-16T00:36:38.298Z,56.09
2019-05-16T00:39:03.786Z,56.10
2019-05-16T00:41:29.780Z,56.04
2019-05-16T00:43:57.617Z,55.85
2019-05-16T00:46:21.792Z,56.04
2019-05-16T00:48:48.725Z,55.92
2019-05-16T00:51:13.815Z,56.05
2019-05-16T00:53:39.815Z,56.05
2019-05-16T00:56:07.776Z,56.06
2019-05-16T00:58:31.845Z,55.98
2019-05-16T01:00:59.289Z,55.93
2019-05-16T01:03:25.546Z,55.99
2019-05-16T01:05:51.534Z,55.93
2019-05-16T01:08:18.888Z,55.97
2019-05-16T01:10:43.557Z,55.96
2019-05-16T01:13:09.579Z,55.99
2019-05-16T01:15:37.865Z,56.00
2019-05-16T01:18:01.597Z,56.01
2019-05-16T01:20:28.002Z,56.00
2019-05-16T01:22:53.590Z,55.96
2019-05-16T01:25:19.749Z,55.96
2019-05-16T01:27:47.602Z,55.92
2019-05-16T01:30:11.637Z,55.91
2019-05-16T01:32:39.220Z,55.88
2019-05-16T01:35:03.711Z,55.76
2019-05-16T01:37:29.727Z,55.80
2019-05-16T01:39:55.762Z,55.73
2019-05-16T01:42:21.763Z,55.85
2019-05-16T01:44:48.684Z,55.66
2019-05-16T01:47:13.792Z,55.64
2019-05-16T01:49:39.810Z,55.62
2019-05-16T01:52:05.808Z,55.81
2019-05-16T01:54:31.834Z,55.64
2019-05-16T01:56:59.445Z,55.78
2019-05-16T01:59:23.873Z,55.68
2019-05-16T02:01:49.893Z,55.57
2019-05-16T02:04:18.209Z,55.69
2019-05-16T02:06:51.722Z,55.70
2019-05-16T02:09:08.121Z,55.71
2019-05-16T02:11:33.952Z,55.53
2019-05-16T02:13:59.957Z,55.55
2019-05-16T02:16:27.826Z,55.65
2019-05-16T02:18:51.975Z,55.56
2019-05-16T02:21:18.339Z,55.61
2019-05-16T02:23:43.996Z,55.48
2019-05-16T02:26:09.982Z,55.64
2019-05-16T02:28:40.180Z,55.61
2019-05-16T02:31:02.028Z,55.55
2019-05-16T02:33:31.422Z,55.62
2019-05-16T02:35:55.612Z,55.54
2019-05-16T02:38:21.190Z,55.52
2019-05-16T02:40:46.114Z,55.46
2019-05-16T02:43:12.642Z,55.59
2019-05-16T02:45:41.324Z,55.54
2019-05-16T02:48:04.213Z,55.40
2019-05-16T02:50:31.547Z,55.59
2019-05-16T02:52:56.265Z,55.54
2019-05-16T02:55:22.250Z,55.40
2019-05-16T02:57:50.727Z,55.47
2019-05-16T03:00:14.283Z,55.42
2019-05-16T03:02:41.974Z,55.53
2019-05-16T03:05:06.344Z,55.45
2019-05-16T03:07:41.120Z,55.39
2019-05-16T03:10:01.616Z,55.37
2019-05-16T03:12:24.398Z,55.52
2019-05-16T03:14:54.174Z,55.41
2019-05-16T03:17:16.413Z,55.49
2019-05-16T03:19:42.430Z,55.32
2019-05-16T03:22:11.418Z,55.48
2019-05-16T03:24:34.490Z,55.47
2019-05-16T03:27:01.631Z,55.37
2019-05-16T03:29:26.592Z,55.36
2019-05-16T03:31:54.102Z,55.29
2019-05-16T03:34:24.902Z,55.28
2019-05-16T03:36:44.722Z,55.32
2019-05-16T03:39:10.850Z,55.30
2019-05-16T03:41:36.699Z,55.45
2019-05-16T03:44:02.693Z,55.30
2019-05-16T03:46:30.925Z,55.39
2019-05-16T03:48:54.719Z,55.42
2019-05-16T03:51:21.521Z,55.45
2019-05-16T03:53:46.826Z,55.50
2019-05-16T03:56:12.850Z,55.88
2019-05-16T03:58:41.607Z,55.60
2019-05-16T04:01:04.887Z,55.83
2019-05-16T04:03:33.150Z,55.74
2019-05-16T04:05:57.011Z,55.62
2019-05-16T04:08:24.988Z,55.60
2019-05-16T04:10:51.712Z,55.53
2019-05-16T04:13:15.071Z,55.61
2019-05-16T04:15:41.064Z,55.68
2019-05-16T04:18:07.100Z,56.12
2019-05-16T04:20:33.107Z,56.78
2019-05-16T04:23:01.114Z,57.37
2019-05-16T04:25:25.131Z,56.69
2019-05-16T04:27:51.176Z,56.79
2019-05-16T04:30:17.224Z,56.95
2019-05-16T04:32:43.359Z,57.31
2019-05-16T04:35:11.309Z,57.26
2019-05-16T04:37:35.540Z,56.82
2019-05-16T04:40:01.895Z,57.44
2019-05-16T04:42:30.743Z,57.65
2019-05-16T04:44:53.662Z,57.01
2019-05-16T04:47:21.032Z,57.46
2019-05-16T04:49:45.964Z,57.58
2019-05-16T04:52:11.957Z,57.90
2019-05-16T04:54:41.486Z,57.43
2019-05-16T04:57:04.298Z,56.98
2019-05-16T04:59:31.286Z,57.05
2019-05-16T05:01:56.502Z,57.93
2019-05-16T05:04:22.556Z,57.29
2019-05-16T05:06:51.009Z,58.13
2019-05-16T05:09:14.602Z,57.27
2019-05-16T05:11:41.251Z,57.06
2019-05-16T05:14:06.606Z,57.02
2019-05-16T05:16:32.624Z,56.89
2019-05-16T05:19:00.343Z,56.95
2019-05-16T05:21:24.705Z,56.79
2019-05-16T05:23:50.999Z,56.75
2019-05-16T05:26:16.768Z,57.12
2019-05-16T05:28:42.766Z,56.75
2019-05-16T05:31:10.847Z,56.69
2019-05-16T05:33:34.806Z,56.88
2019-05-16T05:36:01.291Z,56.90
2019-05-16T05:38:26.894Z,56.75
2019-05-16T05:40:53.008Z,57.31
2019-05-16T05:43:21.596Z,56.80
2019-05-16T05:45:45.282Z,56.96
2019-05-16T05:48:11.494Z,56.57
2019-05-16T05:50:40.010Z,57.07
2019-05-16T05:53:03.737Z,57.11
2019-05-16T05:55:31.300Z,56.61
2019-05-16T05:57:55.859Z,56.68
2019-05-16T06:00:21.893Z,56.79
2019-05-16T06:02:47.887Z,56.60
2019-05-16T06:05:13.947Z,57.05
2019-05-16T06:07:40.432Z,56.49
2019-05-16T06:10:05.986Z,56.96
2019-05-16T06:12:31.991Z,56.55
2019-05-16T06:15:05.898Z,56.94
2019-05-16T06:17:24.024Z,56.49
2019-05-16T06:19:50.025Z,56.71
2019-05-16T06:22:16.165Z,56.54
2019-05-16T06:24:42.164Z,56.51
2019-05-16T06:27:09.847Z,56.39
2019-05-16T06:29:34.194Z,56.40
2019-05-16T06:32:00.302Z,56.31
2019-05-16T06:34:26.373Z,56.57
2019-05-16T06:36:52.492Z,56.67
2019-05-16T06:39:19.877Z,56.33
2019-05-16T06:41:44.513Z,56.74
2019-05-16T06:44:10.793Z,56.23
2019-05-16T06:46:44.468Z,56.20
2019-05-16T06:49:02.719Z,56.31
2019-05-16T06:51:30.532Z,56.26
2019-05-16T06:53:54.762Z,56.31
2019-05-16T06:56:20.872Z,56.54
2019-05-16T06:58:51.007Z,56.53
2019-05-16T07:01:12.893Z,56.63
2019-05-16T07:03:40.109Z,56.64
2019-05-16T07:06:04.977Z,56.37
2019-05-16T07:08:31.343Z,56.47
2019-05-16T07:10:57.014Z,56.63
2019-05-16T07:13:23.023Z,56.33
2019-05-16T07:15:50.027Z,56.63
2019-05-16T07:18:15.082Z,56.19
2019-05-16T07:20:41.099Z,56.26
2019-05-16T07:23:07.164Z,56.14
2019-05-16T07:25:33.182Z,56.39
2019-05-16T07:28:00.683Z,56.44
2019-05-16T07:30:25.208Z,56.25
2019-05-16T07:32:51.230Z,56.52
2019-05-16T07:35:17.236Z,56.25
2019-05-16T07:37:43.285Z,56.44
2019-05-16T07:40:19.358Z,56.23
2019-05-16T07:42:35.307Z,56.09
2019-05-16T07:45:01.315Z,56.43
2019-05-16T07:47:27.333Z,56.42
2019-05-16T07:49:53.444Z,56.21
2019-05-16T07:52:20.914Z,56.23
2019-05-16T07:54:45.505Z,56.36
2019-05-16T07:57:19.651Z,56.47
2019-05-16T07:59:37.639Z,56.34
2019-05-16T08:02:03.669Z,56.48
2019-05-16T08:04:30.398Z,56.43
2019-05-16T08:06:55.678Z,56.39
2019-05-16T08:09:21.704Z,56.44
2019-05-16T08:11:50.026Z,56.41
2019-05-16T08:14:13.734Z,56.45
2019-05-16T08:19:05.846Z,56.50
2019-05-16T08:21:31.909Z,56.48
2019-05-16T08:24:05.814Z,56.41
2019-05-16T08:26:24.035Z,56.52
2019-05-16T08:28:50.556Z,56.39
2019-05-16T08:31:16.170Z,56.04
2019-05-16T08:33:42.179Z,56.48
2019-05-16T08:36:11.630Z,56.47
2019-05-16T08:38:34.205Z,56.42
2019-05-16T08:41:11.515Z,56.33
2019-05-16T08:43:26.311Z,56.42
2019-05-16T08:45:52.312Z,56.08
2019-05-16T08:48:22.683Z,56.36
2019-05-16T08:50:04.936Z,56.44
2019-05-16T08:55:36.689Z,56.45
2019-05-16T08:58:02.903Z,56.44
2019-05-16T09:00:33.313Z,56.42
2019-05-16T09:02:54.938Z,56.49
2019-05-16T09:05:22.589Z,56.40
2019-05-16T09:07:47.001Z,56.47
2019-05-16T09:10:14.343Z,56.43
2019-05-16T09:10:38.789Z,56.46
2019-05-16T09:10:45.923Z,56.43
2019-05-16T09:12:39.040Z,56.56
2019-05-16T09:15:07.587Z,56.50
2019-05-16T09:17:31.059Z,56.52
2019-05-16T09:19:57.799Z,56.45
2019-05-16T09:22:23.451Z,56.45
2019-05-16T09:24:49.464Z,56.43
2019-05-16T09:27:17.902Z,56.58
2019-05-16T09:29:41.473Z,56.55
2019-05-16T09:32:15.885Z,56.61
2019-05-16T09:34:33.516Z,56.60
2019-05-16T09:37:01.154Z,56.55
2019-05-16T09:39:27.715Z,56.54
2019-05-16T09:41:55.610Z,56.53
2019-05-16T09:44:18.739Z,56.52
2019-05-16T09:46:43.649Z,56.57
2019-05-16T09:49:19.413Z,56.37
2019-05-16T09:51:37.683Z,56.50
2019-05-16T09:54:01.756Z,56.33
2019-05-16T09:56:27.749Z,56.37
2019-05-16T09:58:53.789Z,56.67
2019-05-16T10:01:19.796Z,56.80
2019-05-16T10:03:47.751Z,56.57
2019-05-16T10:06:11.828Z,56.58
2019-05-16T10:08:37.876Z,56.67
2019-05-16T10:11:06.184Z,56.44
2019-05-16T10:13:29.881Z,56.47
2019-05-16T10:15:55.894Z,56.43
2019-05-16T10:18:21.901Z,56.45
2019-05-16T10:20:47.919Z,56.58
2019-05-16T10:23:15.044Z,56.42
2019-05-16T10:25:39.951Z,56.30
2019-05-16T10:28:05.977Z,56.55
2019-05-16T10:30:31.963Z,56.54
2019-05-16T10:33:00.774Z,56.56
2019-05-16T10:35:24.018Z,56.41
2019-05-16T10:37:50.018Z,56.14
2019-05-16T10:40:18.302Z,56.19
2019-05-16T10:42:42.053Z,56.26
2019-05-16T10:45:08.891Z,56.30
2019-05-16T10:47:36.900Z,56.63
2019-05-16T10:50:00.297Z,56.29
2019-05-16T10:52:27.003Z,56.49
2019-05-16T10:54:58.454Z,56.30
2019-05-16T10:57:18.428Z,56.38
2019-05-16T11:00:01.857Z,56.73
2019-05-16T11:02:10.411Z,56.79
2019-05-16T11:04:52.639Z,56.68
2019-05-16T11:07:02.381Z,56.41
2019-05-16T11:09:28.490Z,56.43
2019-05-16T11:11:56.975Z,56.79
2019-05-16T11:14:20.542Z,56.56
2019-05-16T11:16:47.361Z,56.59
2019-05-16T11:19:18.268Z,56.69
2019-05-16T11:21:38.581Z,56.60
2019-05-16T11:24:06.298Z,56.63
2019-05-16T11:26:31.146Z,56.72
2019-05-16T11:28:57.138Z,56.68
2019-05-16T11:31:23.158Z,56.70
2019-05-16T11:33:49.150Z,56.44
2019-05-16T11:36:16.722Z,56.65
2019-05-16T11:38:41.212Z,56.46
2019-05-16T11:41:07.423Z,56.56
2019-05-16T11:43:33.262Z,56.78
2019-05-16T11:45:59.281Z,56.82
2019-05-16T11:48:28.854Z,56.36
2019-05-16T11:50:51.302Z,56.55
2019-05-16T11:53:17.674Z,56.46
2019-05-16T11:55:51.817Z,56.40
2019-05-16T11:58:09.472Z,56.95
2019-05-16T12:00:37.243Z,57.07
2019-05-16T12:03:01.493Z,56.66
2019-05-16T12:05:27.507Z,57.04
2019-05-16T12:07:56.924Z,57.10
2019-05-16T12:10:19.521Z,57.01
2019-05-16T12:12:45.648Z,56.64
2019-05-16T12:15:11.659Z,57.11
2019-05-16T12:17:37.687Z,57.10
2019-05-16T12:20:03.691Z,56.74
2019-05-16T12:22:29.718Z,56.92
2019-05-16T12:24:57.379Z,56.66
2019-05-16T12:27:21.785Z,57.13
2019-05-16T12:29:54.151Z,56.90
2019-05-16T12:32:13.815Z,56.94
2019-05-16T12:34:39.837Z,56.88
2019-05-16T12:37:08.575Z,57.03
2019-05-16T12:39:37.642Z,57.22
2019-05-16T12:42:00.622Z,56.58
2019-05-16T12:44:26.973Z,57.02
2019-05-16T12:46:52.665Z,56.91
2019-05-16T12:49:18.670Z,57.08
2019-05-16T12:51:46.497Z,57.00
2019-05-16T12:54:10.688Z,56.59
2019-05-16T12:56:37.675Z,56.63
2019-05-16T12:59:02.717Z,56.84
2019-05-16T13:01:33.970Z,56.63
2019-05-16T13:03:54.927Z,56.59
2019-05-16T13:06:20.925Z,57.04
2019-05-16T13:08:46.963Z,56.82
2019-05-16T13:11:12.960Z,57.09
2019-05-16T13:13:38.961Z,56.89
2019-05-16T13:16:07.322Z,56.77
2019-05-16T13:18:31.003Z,56.98
2019-05-16T13:20:57.485Z,56.84
2019-05-16T13:23:23.110Z,56.67
2019-05-16T13:25:49.148Z,57.08
2019-05-16T13:28:15.294Z,56.67
2019-05-16T13:30:41.291Z,56.85
2019-05-16T13:33:07.493Z,56.93
2019-05-16T13:35:33.427Z,56.55
2019-05-16T13:37:59.440Z,56.55
2019-05-16T13:40:27.546Z,56.92
2019-05-16T13:42:53.890Z,56.54
2019-05-16T13:45:19.914Z,56.62
2019-05-16T13:47:48.837Z,57.02
2019-05-16T13:50:12.737Z,56.64
2019-05-16T13:52:37.971Z,56.80
2019-05-16T13:55:04.061Z,56.74
2019-05-16T13:57:30.087Z,57.29
2019-05-16T13:59:56.741Z,56.83
2019-05-16T14:02:22.116Z,57.25
2019-05-16T14:04:48.141Z,56.84
2019-05-16T14:07:16.980Z,57.50
2019-05-16T14:09:40.526Z,56.98
2019-05-16T14:12:06.784Z,57.17
2019-05-16T14:14:37.989Z,57.55
2019-05-16T14:16:58.593Z,57.10
2019-05-16T14:19:27.317Z,57.67
2019-05-16T14:21:50.645Z,57.58
2019-05-16T14:24:18.087Z,57.18
2019-05-16T14:26:42.707Z,57.09
2019-05-16T14:29:08.847Z,57.75
2019-05-16T14:31:37.384Z,57.66
2019-05-16T14:34:00.913Z,57.21
2019-05-16T14:36:27.986Z,57.63
2019-05-16T14:38:53.051Z,57.44
2019-05-16T14:41:19.079Z,57.41
2019-05-16T14:43:46.825Z,57.06
2019-05-16T14:46:11.134Z,57.37
2019-05-16T14:48:37.266Z,57.20
2019-05-16T14:51:03.294Z,57.33
2019-05-16T14:53:29.227Z,57.17
2019-05-16T14:55:57.644Z,57.22
2019-05-16T14:58:21.264Z,57.11
2019-05-16T15:00:49.306Z,56.81
2019-05-16T15:03:14.713Z,57.22
2019-05-16T15:05:42.881Z,57.11
2019-05-16T15:08:08.205Z,57.24
2019-05-16T15:10:32.889Z,57.30
2019-05-16T15:12:58.925Z,57.30
2019-05-16T15:15:27.873Z,57.30
2019-05-16T15:17:50.951Z,56.81
2019-05-16T15:20:18.220Z,56.94
2019-05-16T15:22:43.049Z,57.10
2019-05-16T15:25:09.068Z,57.18
2019-05-16T15:27:37.001Z,57.06
2019-05-16T15:30:01.091Z,57.24
2019-05-16T15:32:28.262Z,57.07
2019-05-16T15:34:53.124Z,57.00
2019-05-16T15:37:19.428Z,57.22
2019-05-16T15:39:47.607Z,57.60
2019-05-16T15:42:12.642Z,58.25
2019-05-16T15:44:38.898Z,58.71
2019-05-16T15:47:07.405Z,58.71
2019-05-16T15:49:30.940Z,60.16
2019-05-16T15:51:56.990Z,59.57
2019-05-16T15:54:23.889Z,59.58
2019-05-16T15:56:49.887Z,58.78
2019-05-16T15:59:17.945Z,59.83
2019-05-16T16:01:41.946Z,58.92
2019-05-16T16:04:09.768Z,59.85
2019-05-16T16:06:37.972Z,59.04
2019-05-16T16:09:02.483Z,58.83
2019-05-16T16:11:28.563Z,60.05
2019-05-16T16:13:57.531Z,60.44
2019-05-16T16:16:20.874Z,60.28
2019-05-16T16:18:46.986Z,59.68
2019-05-16T16:21:12.914Z,60.18
2019-05-16T16:23:38.958Z,59.53
2019-05-16T16:26:07.156Z,60.05
2019-05-16T16:28:30.998Z,59.91
2019-05-16T16:30:57.148Z,59.84
2019-05-16T16:33:27.328Z,60.09
2019-05-16T16:35:49.082Z,59.96
2019-05-16T16:38:16.966Z,59.07
2019-05-16T16:40:41.102Z,60.02
2019-05-16T16:43:09.252Z,59.82
2019-05-16T16:45:35.278Z,60.04
2019-05-16T16:48:01.308Z,59.47
2019-05-16T16:50:27.311Z,59.86
2019-05-16T16:52:53.347Z,60.24
2019-05-16T16:55:19.460Z,59.58
2019-05-16T16:57:47.258Z,60.40
2019-05-16T17:00:11.484Z,60.26
2019-05-16T17:02:37.781Z,60.13
2019-05-16T17:05:03.551Z,59.52
2019-05-16T17:07:29.549Z,59.89
2019-05-16T17:10:06.994Z,60.32
2019-05-16T17:12:33.477Z,60.23
2019-05-16T17:14:59.654Z,59.31
2019-05-16T17:17:26.561Z,59.24
2019-05-16T17:19:51.741Z,59.04
2019-05-16T17:22:30.670Z,59.28
2019-05-16T17:25:00.815Z,59.02
2019-05-16T17:27:27.033Z,59.36
2019-05-16T17:29:53.502Z,59.56
2019-05-16T17:32:20.170Z,60.45
2019-05-16T17:34:46.173Z,60.08
2019-05-16T17:37:12.222Z,59.30
2019-05-16T17:39:38.329Z,59.00
2019-05-16T17:42:04.554Z,60.60
2019-05-16T17:44:30.786Z,59.48
2019-05-16T17:46:57.552Z,59.01
2019-05-16T17:49:22.932Z,59.13
2019-05-16T17:51:48.935Z,60.19
2019-05-16T17:54:17.171Z,59.52
2019-05-16T17:56:50.532Z,60.31
2019-05-16T17:59:17.022Z,60.14
2019-05-16T18:01:42.590Z,60.32
2019-05-16T18:04:08.748Z,60.39
2019-05-16T18:06:36.932Z,59.97
2019-05-16T18:09:00.811Z,59.67
2019-05-16T18:11:26.914Z,59.70
2019-05-16T18:13:52.920Z,59.09
2019-05-16T18:16:18.928Z,59.86
2019-05-16T18:18:46.874Z,59.16
2019-05-16T18:21:11.145Z,59.16
2019-05-16T18:23:37.256Z,58.96
2019-05-16T18:26:03.274Z,59.52
2019-05-16T18:28:29.394Z,59.32
2019-05-16T18:30:56.660Z,58.97
2019-05-16T18:33:21.469Z,58.78
2019-05-16T18:35:47.489Z,59.98
2019-05-16T18:38:13.551Z,58.64
2019-05-16T18:40:39.548Z,59.25
2019-05-16T18:43:08.102Z,59.97
2019-05-16T18:45:31.593Z,59.77
2019-05-16T18:47:57.876Z,60.07
2019-05-16T18:50:23.873Z,59.34
2019-05-16T18:52:52.951Z,59.93
2019-05-16T18:55:28.140Z,59.44
2019-05-16T18:57:57.801Z,59.49
2019-05-16T19:00:24.082Z,59.49
2019-05-16T19:02:50.082Z,59.32
2019-05-16T19:05:17.223Z,58.99
2019-05-16T19:07:42.272Z,59.54
2019-05-16T19:10:08.273Z,58.72
2019-05-16T19:12:36.944Z,59.33
2019-05-16T19:15:12.176Z,58.92
2019-05-16T19:17:38.167Z,58.82
2019-05-16T19:20:06.464Z,58.86
2019-05-16T19:22:30.278Z,58.81
2019-05-16T19:24:57.434Z,58.72
2019-05-16T19:27:22.937Z,59.26
2019-05-16T19:29:49.060Z,59.40
2019-05-16T19:32:17.090Z,58.48
2019-05-16T19:34:41.103Z,58.73
2019-05-16T19:37:07.164Z,58.57
2019-05-16T19:39:33.109Z,59.13
2019-05-16T19:41:59.132Z,59.27
2019-05-16T19:44:27.256Z,59.23
2019-05-16T19:46:51.207Z,58.60
2019-05-16T19:49:17.253Z,59.50
2019-05-16T19:51:46.060Z,58.49
2019-05-16T19:54:09.259Z,58.73
2019-05-16T19:56:37.384Z,58.90
2019-05-16T19:59:01.438Z,58.95
2019-05-16T20:01:27.582Z,58.46
2019-05-16T20:03:53.494Z,58.86
2019-05-16T20:06:19.516Z,58.38
2019-05-16T20:08:45.523Z,58.58
2019-05-16T20:11:11.538Z,58.82
2019-05-16T20:13:37.664Z,58.70
2019-05-16T20:16:03.658Z,58.93
2019-05-16T20:18:29.672Z,58.94
2019-05-16T20:20:56.794Z,58.96
2019-05-16T20:23:21.708Z,58.35
2019-05-16T20:25:47.704Z,58.93
2019-05-16T20:28:13.724Z,58.61
2019-05-16T20:30:39.752Z,58.17
2019-05-16T20:33:08.978Z,58.63
2019-05-16T20:35:31.828Z,58.73
2019-05-16T20:37:57.824Z,58.56
2019-05-16T20:40:23.921Z,58.52
2019-05-16T20:42:49.918Z,58.56
2019-05-16T20:45:16.925Z,58.23
2019-05-16T20:47:42.000Z,58.08
2019-05-16T20:50:08.030Z,58.44
2019-05-16T20:52:34.046Z,58.65
2019-05-16T20:55:00.041Z,58.61
2019-05-16T20:57:26.540Z,58.40
2019-05-16T20:59:52.050Z,58.54
2019-05-16T21:02:18.044Z,58.67
2019-05-16T21:04:46.395Z,58.53
2019-05-16T21:07:11.227Z,58.54
2019-05-16T21:09:56.977Z,58.36
2019-05-16T21:12:20.739Z,58.33
2019-05-16T21:14:46.984Z,58.00
2019-05-16T21:17:13.219Z,57.79
2019-05-16T21:19:39.435Z,57.96
2019-05-16T21:22:07.215Z,58.04
2019-05-16T21:24:31.372Z,57.94
2019-05-16T21:26:57.399Z,57.65
2019-05-16T21:29:23.416Z,58.06
2019-05-16T21:31:49.418Z,57.71
2019-05-16T21:34:16.150Z,57.89
2019-05-16T21:36:41.575Z,57.99
2019-05-16T21:39:08.521Z,57.78
2019-05-16T21:41:33.754Z,57.89
2019-05-16T21:43:59.787Z,57.52
2019-05-16T21:46:27.138Z,57.76
2019-05-16T21:48:51.859Z,57.76
2019-05-16T21:51:19.731Z,57.75
2019-05-16T21:53:43.968Z,57.60
2019-05-16T21:56:09.999Z,57.73
2019-05-16T21:58:37.039Z,57.65
2019-05-16T22:01:02.055Z,57.47
2019-05-16T22:03:28.067Z,57.47
2019-05-16T22:05:57.314Z,57.60
2019-05-16T22:08:20.199Z,57.53
2019-05-16T22:10:46.683Z,57.63
2019-05-16T22:13:12.273Z,57.64
2019-05-16T22:15:38.288Z,57.44
2019-05-16T22:18:04.318Z,57.54
2019-05-16T22:20:30.332Z,57.58
2019-05-16T22:22:57.427Z,57.54
2019-05-16T22:25:22.433Z,57.53
2019-05-16T22:27:48.967Z,57.22
2019-05-16T22:30:16.366Z,57.23
2019-05-16T22:32:40.492Z,57.54
2019-05-16T22:35:07.822Z,57.47
2019-05-16T22:37:32.622Z,57.48
2019-05-16T22:39:59.717Z,57.21
2019-05-16T22:42:26.631Z,57.30
2019-05-16T22:44:50.647Z,57.38
2019-05-16T22:47:17.205Z,57.43
2019-05-16T22:49:42.683Z,57.36
2019-05-16T22:52:08.688Z,57.10
2019-05-16T22:54:36.859Z,57.41
2019-05-16T22:57:00.706Z,57.43
2019-05-16T22:59:27.185Z,57.02
2019-05-16T23:01:52.728Z,57.34
2019-05-16T23:04:18.759Z,57.35
2019-05-16T23:06:44.779Z,57.27
2019-05-16T23:09:10.796Z,57.34
2019-05-16T23:11:36.818Z,57.33
2019-05-16T23:14:02.820Z,57.27
2019-05-16T23:16:28.838Z,57.22
2019-05-16T23:18:56.978Z,57.30
2019-05-16T23:21:20.851Z,57.35
2019-05-16T23:23:46.846Z,57.30
2019-05-16T23:26:12.884Z,57.23
2019-05-16T23:28:38.899Z,57.31
2019-05-16T23:31:04.919Z,57.14
2019-05-16T23:33:30.940Z,57.20
2019-05-16T23:35:57.564Z,57.23
2019-05-16T23:38:22.934Z,57.24
2019-05-16T23:40:48.968Z,56.94
2019-05-16T23:43:15.005Z,56.99
2019-05-16T23:45:41.031Z,57.22
2019-05-16T23:48:10.289Z,57.18
2019-05-16T23:50:33.046Z,57.17
2019-05-16T23:52:59.078Z,57.14
2019-05-16T23:55:27.623Z,57.10
2019-05-16T23:57:51.060Z,57.13
